Time;durP1;ratioP1;P1;durP2;ratioP2;P2;SDS_P1;SDS_P2;PMS_P1;PMS_P2;Temp;Humidity;BMP_temperature;BMP_pressure;BME280_temperature;BME280_humidity;BME280_pressure;Samples;Min_cycle;Max_cycle;Signal;HPM_P1;HPM_P2
2022/10/14 00:02:00;;;;;;;20.10;9.68;;;;;;;4.47;76.76;99934.00;5049266;28;20127;-58
2022/10/14 00:04:37;;;;;;;15.93;9.70;;;;;;;4.39;77.26;99936.75;5088431;28;20138;-58
2022/10/14 00:07:13;;;;;;;20.80;12.20;;;;;;;4.31;77.26;99938.47;5068539;28;20386;-58
2022/10/14 00:09:49;;;;;;;19.48;10.48;;;;;;;4.28;77.06;99933.56;5068557;28;20139;-58
2022/10/14 00:12:28;;;;;;;18.02;10.57;;;;;;;4.33;77.09;99941.72;5068755;28;20135;-58
2022/10/14 00:15:07;;;;;;;23.50;13.68;;;;;;;4.35;76.76;99935.47;5068802;28;20394;-59
2022/10/14 00:17:44;;;;;;;19.13;13.07;;;;;;;4.32;77.36;99940.09;5068656;28;20406;-58
2022/10/14 00:20:21;;;;;;;21.08;12.48;;;;;;;4.29;77.00;99940.47;5094183;28;20136;-58
2022/10/14 00:22:59;;;;;;;18.05;11.50;;;;;;;4.25;77.58;99933.94;5032821;28;20390;-58
2022/10/14 00:25:37;;;;;;;25.27;13.02;;;;;;;4.21;77.47;99943.19;5068433;28;20137;-58
2022/10/14 00:28:14;;;;;;;23.52;14.75;;;;;;;4.15;77.62;99930.81;5068624;27;20795;-58
2022/10/14 00:30:55;;;;;;;22.30;13.65;;;;;;;4.07;78.05;99930.88;5068452;28;20141;-58
2022/10/14 00:33:30;;;;;;;24.48;14.18;;;;;;;4.06;77.98;99937.16;5116487;27;1292912;-57
2022/10/14 00:36:15;;;;;;;26.85;16.65;;;;;;;4.00;78.17;99930.81;5068575;28;20391;-60
2022/10/14 00:38:53;;;;;;;23.17;15.13;;;;;;;4.00;78.17;99929.97;5068507;28;20386;-59
2022/10/14 00:41:31;;;;;;;26.92;14.32;;;;;;;4.00;78.13;99935.22;5105386;27;20912;-58
2022/10/14 00:44:14;;;;;;;23.10;14.90;;;;;;;4.09;78.53;99934.16;5068553;28;20391;-59
2022/10/14 00:46:51;;;;;;;22.85;14.23;;;;;;;4.14;78.36;99933.59;5068736;28;20394;-59
2022/10/14 00:49:35;;;;;;;23.58;13.57;;;;;;;4.17;77.47;99926.16;5068748;28;20139;-58
2022/10/14 00:52:15;;;;;;;28.02;15.85;;;;;;;4.15;77.68;99909.81;5089933;27;20378;-58
2022/10/14 00:54:56;;;;;;;27.63;17.55;;;;;;;4.15;77.59;99932.59;5109179;27;20388;-58
2022/10/14 00:57:35;;;;;;;26.02;14.77;;;;;;;4.15;77.56;99933.44;5068612;27;20387;-58
2022/10/14 01:00:14;;;;;;;27.17;14.90;;;;;;;4.22;77.22;99928.25;5068625;28;20395;-58
2022/10/14 01:02:51;;;;;;;23.60;14.93;;;;;;;4.16;77.45;99926.38;5068612;28;20387;-59
2022/10/14 01:05:32;;;;;;;23.50;14.45;;;;;;;4.07;77.88;99929.06;5068609;28;20131;-58
2022/10/14 01:08:16;;;;;;;25.35;15.82;;;;;;;4.12;78.05;99932.94;5089017;27;20378;-59
2022/10/14 01:11:12;;;;;;;30.25;17.50;;;;;;;4.12;77.70;99931.16;5068659;28;20962;-58
2022/10/14 01:14:02;;;;;;;36.60;21.98;;;;;;;4.12;77.92;99930.34;5068621;28;20394;-60
2022/10/14 01:16:46;;;;;;;23.63;16.20;;;;;;;4.10;78.16;99931.34;5068577;28;20406;-58
2022/10/14 01:20:03;;;;;;;23.02;15.20;;;;;;;4.06;77.58;99927.47;5068753;28;20386;-59
2022/10/14 01:22:46;;;;;;;23.95;15.40;;;;;;;3.96;78.42;99928.72;5088972;28;20389;-57
2022/10/14 01:25:34;;;;;;;21.92;15.38;;;;;;;3.98;78.42;99932.78;5068646;27;20398;-59
2022/10/14 01:28:23;;;;;;;25.45;16.80;;;;;;;3.96;78.95;99932.16;5109102;27;20384;-58
2022/10/14 01:31:04;;;;;;;25.48;17.42;;;;;;;3.93;78.97;99922.03;5068443;28;20386;-58
2022/10/14 01:33:43;;;;;;;22.55;15.35;;;;;;;3.91;78.83;99920.56;5068453;28;20387;-59
2022/10/14 01:36:28;;;;;;;24.67;16.08;;;;;;;3.94;79.11;99920.22;5068513;28;20394;-58
2022/10/14 01:39:22;;;;;;;21.08;14.45;;;;;;;3.91;78.98;99918.75;5129421;27;20535;-58
2022/10/14 01:42:06;;;;;;;23.05;13.98;;;;;;;3.84;79.02;99912.63;5068508;28;20383;-58
2022/10/14 01:44:49;;;;;;;18.05;12.88;;;;;;;3.77;79.23;99920.41;5068421;28;20393;-59
2022/10/14 01:47:29;;;;;;;32.38;21.90;;;;;;;3.66;79.87;99909.53;5068519;28;20832;-58
2022/10/14 01:50:12;;;;;;;29.00;18.90;;;;;;;3.59;79.97;99912.06;5068439;27;20393;-58
2022/10/14 01:52:56;;;;;;;22.70;16.05;;;;;;;3.46;80.47;99906.63;5150315;27;20393;-58
2022/10/14 01:55:37;;;;;;;18.48;11.18;;;;;;;3.38;80.85;99908.31;5068495;28;20922;-59
2022/10/14 01:58:16;;;;;;;17.85;11.88;;;;;;;3.29;80.91;99905.94;4985878;28;20817;-58
2022/10/14 02:00:55;;;;;;;19.48;11.00;;;;;;;3.22;81.16;99905.03;5108943;27;20727;-60
2022/10/14 02:03:44;;;;;;;17.08;11.68;;;;;;;3.14;81.44;99904.09;5068364;28;20387;-59
2022/10/14 02:06:26;;;;;;;20.55;11.95;;;;;;;3.04;81.91;99902.72;5068691;28;20398;-59
2022/10/14 02:09:06;;;;;;;16.95;8.77;;;;;;;2.95;82.57;99908.00;5068438;28;20391;-59
2022/10/14 02:12:06;;;;;;;17.88;10.43;;;;;;;2.88;82.72;99908.88;5068309;28;20397;-58
2022/10/14 02:15:08;;;;;;;16.00;10.00;;;;;;;2.83;82.99;99903.38;4989234;28;20403;-59
2022/10/14 02:18:13;;;;;;;14.80;9.80;;;;;;;2.77;82.91;99902.25;5068450;28;20803;-58
2022/10/14 02:20:58;;;;;;;23.42;12.07;;;;;;;2.72;83.25;99904.56;5088541;27;20408;-59
2022/10/14 02:23:40;;;;;;;46.05;29.58;;;;;;;2.66;83.95;99903.47;5068553;28;20788;-58
2022/10/14 02:26:18;;;;;;;21.40;14.50;;;;;;;2.63;84.16;99906.44;5068504;28;20394;-59
2022/10/14 02:28:56;;;;;;;18.10;11.80;;;;;;;2.57;84.32;99904.50;5068416;28;20387;-57
2022/10/14 02:31:34;;;;;;;21.42;13.30;;;;;;;2.52;84.02;99916.47;5068415;28;20149;-59
2022/10/14 02:34:17;;;;;;;22.80;11.55;;;;;;;2.48;84.56;99919.44;5068407;28;20390;-58
2022/10/14 02:36:54;;;;;;;17.23;10.82;;;;;;;2.46;84.62;99913.53;5068441;28;20410;-59
2022/10/14 02:39:34;;;;;;;21.25;11.05;;;;;;;2.44;84.72;99912.94;5068176;28;20149;-58
2022/10/14 02:42:16;;;;;;;19.50;10.65;;;;;;;2.39;85.21;99917.03;5068488;28;20395;-58
2022/10/14 02:44:58;;;;;;;21.73;12.02;;;;;;;2.38;85.05;99918.84;5068428;28;20390;-59
2022/10/14 02:47:34;;;;;;;17.77;10.70;;;;;;;2.39;84.95;99917.03;5068470;27;20390;-59
2022/10/14 02:50:11;;;;;;;18.38;10.52;;;;;;;2.36;84.78;99925.22;5068447;27;20145;-59
2022/10/14 02:52:47;;;;;;;17.83;10.88;;;;;;;2.30;84.34;99920.69;5068403;28;20135;-58
2022/10/14 02:55:24;;;;;;;17.10;10.82;;;;;;;2.24;84.66;99916.94;5068534;28;20138;-60
2022/10/14 02:58:00;;;;;;;24.83;11.90;;;;;;;2.26;84.64;99922.81;5068544;28;20516;-59
2022/10/14 03:00:37;;;;;;;19.58;10.93;;;;;;;2.21;85.09;99922.50;5088718;28;20138;-58
2022/10/14 03:03:14;;;;;;;17.92;10.93;;;;;;;2.18;84.53;99918.44;5068693;28;20143;-59
2022/10/14 03:05:50;;;;;;;16.58;10.10;;;;;;;2.16;85.07;99907.31;5068620;28;20547;-58
2022/10/14 03:08:27;;;;;;;17.30;10.07;;;;;;;2.12;85.49;99915.66;5068733;28;20134;-59
2022/10/14 03:11:07;;;;;;;20.05;11.43;;;;;;;2.08;85.45;99911.75;5068677;28;20950;-59
2022/10/14 03:13:45;;;;;;;18.60;10.98;;;;;;;2.02;85.54;99919.28;5068683;28;20947;-57
2022/10/14 03:16:21;;;;;;;20.50;10.93;;;;;;;2.01;85.41;99915.06;5068716;28;20141;-59
2022/10/14 03:18:58;;;;;;;17.95;10.55;;;;;;;2.02;85.44;99913.25;5067990;28;20145;-59
2022/10/14 03:21:50;;;;;;;20.13;11.32;;;;;;;1.97;84.93;99913.78;5063036;27;20379;-58
2022/10/14 03:24:30;;;;;;;17.20;10.48;;;;;;;1.90;84.73;99914.59;5068234;28;20869;-58
2022/10/14 03:27:33;;;;;;;18.88;11.13;;;;;;;1.87;84.67;99914.94;5068118;27;20425;-59
2022/10/14 03:30:16;;;;;;;19.45;11.38;;;;;;;1.89;86.26;99907.75;5065634;27;20977;-58
2022/10/14 03:33:05;;;;;;;23.65;10.85;;;;;;;1.92;86.16;99915.25;5068284;28;20391;-58
2022/10/14 03:35:56;;;;;;;19.02;10.57;;;;;;;1.92;85.87;99910.84;5062696;28;20400;-58
2022/10/14 03:38:46;;;;;;;26.58;9.77;;;;;;;1.90;84.71;99915.41;5068299;28;20379;-58
2022/10/14 03:41:33;;;;;;;21.35;10.73;;;;;;;1.86;84.47;99908.91;5060045;28;20387;-58
2022/10/14 03:44:10;;;;;;;30.35;10.60;;;;;;;1.88;84.33;99906.91;5068458;28;20143;-58
2022/10/14 03:46:51;;;;;;;19.55;10.00;;;;;;;1.86;83.91;99905.47;5050842;27;20813;-58
2022/10/14 03:49:33;;;;;;;19.77;11.15;;;;;;;1.84;84.55;99896.97;5068753;28;20387;-58
2022/10/14 03:52:17;;;;;;;21.42;11.05;;;;;;;1.83;84.36;99897.97;5068821;28;20378;-59
2022/10/14 03:54:59;;;;;;;23.15;10.48;;;;;;;1.79;84.57;99894.84;5068592;28;20982;-57
2022/10/14 03:57:37;;;;;;;24.65;11.48;;;;;;;1.81;84.29;99892.91;5068660;28;20792;-59
2022/10/14 04:00:15;;;;;;;25.67;11.07;;;;;;;1.79;83.90;99892.25;5068637;28;20390;-60
2022/10/14 04:02:52;;;;;;;26.42;10.68;;;;;;;1.75;83.49;99888.34;5068405;28;20095;-57
2022/10/14 04:05:43;;;;;;;30.20;11.30;;;;;;;1.69;83.73;99889.81;5068636;27;20394;-57
2022/10/14 04:08:27;;;;;;;24.63;12.35;;;;;;;1.74;84.30;99892.75;5068678;28;20969;-59
2022/10/14 04:11:26;;;;;;;27.52;11.55;;;;;;;1.70;84.21;99894.06;5068754;28;20951;-57
2022/10/14 04:14:09;;;;;;;27.67;12.70;;;;;;;1.70;83.99;99891.44;5068761;28;20393;-58
2022/10/14 04:16:54;;;;;;;25.80;12.30;;;;;;;1.71;83.43;99897.50;5068625;27;20390;-59
2022/10/14 04:19:32;;;;;;;33.05;11.07;;;;;;;1.69;83.50;99892.44;5068652;28;20421;-58
2022/10/14 04:22:10;;;;;;;26.42;11.63;;;;;;;1.72;83.91;99888.69;5048741;28;20388;-58
2022/10/14 04:24:47;;;;;;;28.88;10.65;;;;;;;1.76;83.81;99884.75;5068623;28;20134;-58
2022/10/14 04:27:24;;;;;;;27.40;10.60;;;;;;;1.78;82.97;99895.84;5068457;28;20575;-58
2022/10/14 04:30:11;;;;;;;21.20;10.10;;;;;;;1.81;83.59;99885.06;5068702;28;20954;-59
2022/10/14 04:32:59;;;;;;;24.17;11.35;;;;;;;1.82;83.38;99891.91;5068629;28;20391;-59
2022/10/14 04:35:36;;;;;;;24.42;9.80;;;;;;;1.86;83.58;99898.44;5068208;27;20138;-59
2022/10/14 04:38:16;;;;;;;25.88;10.57;;;;;;;1.87;83.38;99891.41;5068401;27;20397;-58
2022/10/14 04:41:02;;;;;;;13.15;8.60;;;;;;;1.91;84.37;99901.38;5068727;28;20391;-60
2022/10/14 04:43:40;;;;;;;16.77;9.75;;;;;;;1.97;84.18;99905.09;5068492;28;20410;-58
2022/10/14 04:46:30;;;;;;;15.02;8.70;;;;;;;2.01;84.14;99898.56;5068288;28;20953;-58
2022/10/14 04:49:08;;;;;;;15.30;8.55;;;;;;;2.04;84.14;99900.84;5088495;27;20386;-61
2022/10/14 04:51:49;;;;;;;12.88;8.07;;;;;;;2.05;83.80;99895.41;5068267;28;20788;-59
2022/10/14 04:54:35;;;;;;;12.57;8.40;;;;;;;2.04;84.41;99898.22;5068403;28;20764;-59
2022/10/14 04:57:12;;;;;;;18.58;8.40;;;;;;;2.13;84.56;99899.81;5068210;28;20135;-59
2022/10/14 04:59:50;;;;;;;22.73;8.52;;;;;;;2.15;84.51;99899.66;5068212;28;20394;-60
2022/10/14 05:02:32;;;;;;;13.88;8.10;;;;;;;2.22;85.08;99904.03;5068352;28;20402;-58
2022/10/14 05:05:10;;;;;;;14.57;8.18;;;;;;;2.30;84.40;99897.94;5068272;28;20398;-59
2022/10/14 05:07:50;;;;;;;13.00;7.93;;;;;;;2.37;84.48;99905.91;5068387;28;20395;-59
2022/10/14 05:10:34;;;;;;;18.10;9.15;;;;;;;2.42;83.95;99904.41;5068296;28;20939;-59
2022/10/14 05:13:14;;;;;;;13.30;8.25;;;;;;;2.46;83.65;99897.84;5068305;27;20387;-59
2022/10/14 05:16:03;;;;;;;14.45;8.80;;;;;;;2.45;83.28;99896.22;5096359;27;1300932;-58
2022/10/14 05:18:40;;;;;;;15.38;8.98;;;;;;;2.48;83.34;99901.13;5068148;28;20784;-59
2022/10/14 05:21:20;;;;;;;16.33;9.13;;;;;;;2.55;83.27;99901.22;5068274;27;20399;-60
2022/10/14 05:24:11;;;;;;;14.57;8.18;;;;;;;2.60;82.65;99895.50;5068227;28;20402;-60
2022/10/14 05:26:50;;;;;;;18.08;9.00;;;;;;;2.58;82.08;99894.84;5167880;27;20448;-60
2022/10/14 05:29:27;;;;;;;16.52;8.55;;;;;;;2.57;82.12;99895.84;5068103;28;20404;-59
2022/10/14 05:32:04;;;;;;;14.98;8.45;;;;;;;2.61;81.80;99895.31;5068109;28;21208;-59
2022/10/14 05:35:00;;;;;;;19.08;10.25;;;;;;;2.68;81.67;99885.78;5068206;28;20394;-59
2022/10/14 05:37:46;;;;;;;30.77;14.35;;;;;;;2.75;81.35;99892.94;5129378;27;20946;-60
2022/10/14 05:40:23;;;;;;;16.52;9.90;;;;;;;2.77;80.46;99890.97;5068373;28;20328;-58
2022/10/14 05:43:01;;;;;;;16.40;9.82;;;;;;;2.81;80.71;99887.81;5068072;28;20399;-59
2022/10/14 05:45:39;;;;;;;17.00;9.00;;;;;;;2.89;80.27;99893.00;5064196;28;20391;-59
2022/10/14 05:48:16;;;;;;;16.08;10.10;;;;;;;2.96;80.12;99890.50;5066161;28;20149;-60
2022/10/14 05:50:54;;;;;;;19.83;8.57;;;;;;;3.02;79.72;99899.44;5065214;28;20397;-61
2022/10/14 05:53:34;;;;;;;19.25;9.02;;;;;;;3.05;79.54;99904.34;5065788;28;20413;-59
2022/10/14 05:56:15;;;;;;;22.15;9.63;;;;;;;3.07;79.62;99897.13;5065270;28;20403;-54
2022/10/14 05:58:52;;;;;;;16.85;8.77;;;;;;;3.10;79.94;99894.16;5067562;28;20146;-59
2022/10/14 06:01:28;;;;;;;17.98;9.32;;;;;;;3.13;79.69;99899.84;5067174;28;20150;-60
2022/10/14 06:04:05;;;;;;;18.85;9.80;;;;;;;3.19;79.57;99893.91;5067567;28;20169;-61
2022/10/14 06:06:41;;;;;;;18.23;8.95;;;;;;;3.29;78.99;99898.88;5066593;27;20653;-57
2022/10/14 06:09:19;;;;;;;18.90;9.60;;;;;;;3.37;79.42;99898.00;5066625;28;20150;-58
2022/10/14 06:11:56;;;;;;;18.60;9.52;;;;;;;3.35;79.26;99898.19;5067424;28;20414;-58
2022/10/14 06:14:37;;;;;;;15.38;9.10;;;;;;;3.47;79.09;99909.06;5107250;27;20156;-59
2022/10/14 06:17:14;;;;;;;17.00;8.85;;;;;;;3.54;78.36;99904.72;5066435;28;20943;-60
2022/10/14 06:19:51;;;;;;;16.38;9.02;;;;;;;3.60;78.15;99908.44;5067904;27;20504;-61
2022/10/14 06:22:27;;;;;;;14.63;9.50;;;;;;;3.62;78.21;99912.53;5067661;28;20631;-59
2022/10/14 06:25:04;;;;;;;16.77;9.18;;;;;;;3.64;78.22;99917.56;5066744;28;20524;-59
2022/10/14 06:27:43;;;;;;;18.80;9.90;;;;;;;3.70;77.99;99923.91;5067064;28;20765;-58
2022/10/14 06:30:19;;;;;;;23.63;9.98;;;;;;;3.79;78.35;99907.09;5066297;28;20141;-59
2022/10/14 06:32:56;;;;;;;18.38;9.32;;;;;;;3.90;77.63;99913.69;5064264;28;20126;-60
2022/10/14 06:35:32;;;;;;;17.67;9.43;;;;;;;3.95;77.29;99921.84;5106602;27;20485;-59
2022/10/14 06:38:09;;;;;;;16.98;9.90;;;;;;;4.02;77.65;99914.88;5108113;27;20128;-59
2022/10/14 06:40:45;;;;;;;16.83;9.50;;;;;;;4.07;77.34;99921.22;5065522;28;20138;-59
2022/10/14 06:43:22;;;;;;;14.90;9.25;;;;;;;4.14;76.64;99920.47;5067945;28;20543;-60
2022/10/14 06:46:02;;;;;;;16.30;8.43;;;;;;;4.14;76.58;99917.84;5065278;27;20791;-60
2022/10/14 06:48:38;;;;;;;31.67;10.80;;;;;;;4.22;76.30;99917.75;5064983;28;20784;-59
2022/10/14 06:51:15;;;;;;;14.60;9.23;;;;;;;4.32;76.64;99915.66;5064873;28;20150;-59
2022/10/14 06:53:52;;;;;;;17.40;9.73;;;;;;;4.41;76.24;99919.81;5084239;27;20137;-58
2022/10/14 06:56:28;;;;;;;15.38;8.35;;;;;;;4.46;75.53;99911.38;5063800;28;20395;-60
2022/10/14 06:59:04;;;;;;;13.05;7.47;;;;;;;4.55;75.33;99929.47;5103525;27;1291682;-59
2022/10/14 07:01:41;;;;;;;12.52;8.00;;;;;;;4.56;75.19;99922.41;5063905;27;20390;-59
2022/10/14 07:04:18;;;;;;;11.77;6.38;;;;;;;4.59;75.84;99924.66;5064826;27;20165;-59
2022/10/14 07:06:57;;;;;;;8.57;5.47;;;;;;;4.65;75.00;99931.81;5065924;28;20134;-56
2022/10/14 07:09:34;;;;;;;7.63;5.45;;;;;;;4.63;74.25;99919.84;5065252;28;20387;-59
2022/10/14 07:12:11;;;;;;;9.82;6.25;;;;;;;4.70;74.43;99929.41;5109652;27;20136;-58
2022/10/14 07:14:48;;;;;;;11.05;6.10;;;;;;;4.75;75.00;99923.63;5064087;28;20539;-56
2022/10/14 07:17:26;;;;;;;8.88;5.82;;;;;;;4.83;74.91;99925.31;5104571;27;20380;-59
2022/10/14 07:20:03;;;;;;;8.05;6.20;;;;;;;4.82;74.71;99926.31;5064360;27;20410;-58
2022/10/14 07:22:39;;;;;;;7.78;5.35;;;;;;;4.92;74.89;99926.81;5065115;28;20134;-60
2022/10/14 07:25:16;;;;;;;9.88;6.35;;;;;;;5.00;73.85;99931.97;5064591;27;20672;-60
2022/10/14 07:27:52;;;;;;;7.93;6.10;;;;;;;5.06;73.75;99933.00;5066401;28;20145;-61
2022/10/14 07:30:29;;;;;;;7.93;5.47;;;;;;;5.13;73.91;99921.56;5066586;28;20584;-61
2022/10/14 07:33:06;;;;;;;9.07;5.15;;;;;;;5.21;72.88;99925.88;5126582;27;20632;-60
2022/10/14 07:35:42;;;;;;;10.45;5.28;;;;;;;5.29;72.57;99928.34;5066200;27;20141;-60
2022/10/14 07:38:19;;;;;;;9.40;4.80;;;;;;;5.38;72.19;99921.16;5066548;28;20161;-59
2022/10/14 07:41:01;;;;;;;11.82;5.13;;;;;;;5.44;71.65;99913.34;5064734;27;20543;-58
2022/10/14 07:43:38;;;;;;;6.82;4.78;;;;;;;5.51;70.55;99920.47;5066960;28;20390;-61
2022/10/14 07:46:27;;;;;;;6.65;5.28;;;;;;;5.55;70.55;99916.44;5063321;28;20146;-60
2022/10/14 07:49:04;;;;;;;9.60;5.78;;;;;;;5.63;71.10;99914.47;5106799;27;20934;-59
2022/10/14 07:51:42;;;;;;;8.48;4.80;;;;;;;5.70;69.92;99914.50;5066061;28;20986;-59
2022/10/14 07:54:21;;;;;;;6.50;4.97;;;;;;;5.78;69.93;99908.28;5066479;28;20934;-59
2022/10/14 07:56:58;;;;;;;9.55;4.95;;;;;;;5.80;68.60;99917.63;5127434;27;20382;-58
2022/10/14 07:59:34;;;;;;;7.15;4.47;;;;;;;5.86;68.90;99908.94;5064455;27;20138;-59
2022/10/14 08:02:11;;;;;;;7.95;5.20;;;;;;;5.95;68.25;99914.09;5031626;28;20140;-59
2022/10/14 08:04:51;;;;;;;7.38;4.75;;;;;;;5.93;68.17;99901.13;5066258;27;20138;-59
2022/10/14 08:07:28;;;;;;;7.15;4.20;;;;;;;5.91;67.61;99903.09;5066223;28;20390;-59
2022/10/14 08:10:05;;;;;;;9.23;4.50;;;;;;;6.02;67.52;99907.03;5067006;28;20387;-59
2022/10/14 08:12:42;;;;;;;5.93;4.40;;;;;;;6.05;67.14;99901.38;5090621;27;20145;-60
2022/10/14 08:15:18;;;;;;;5.95;4.32;;;;;;;6.06;67.36;99906.47;5066259;28;20142;-59
2022/10/14 08:17:55;;;;;;;6.32;3.97;;;;;;;6.10;66.29;99901.63;5066821;28;20146;-58
2022/10/14 08:20:33;;;;;;;4.68;3.58;;;;;;;6.15;66.63;99907.13;5066434;28;20134;-59
2022/10/14 08:23:11;;;;;;;5.60;4.03;;;;;;;6.23;65.69;99903.50;5065804;28;20958;-61
2022/10/14 08:25:48;;;;;;;7.95;4.03;;;;;;;6.26;65.82;99896.00;5065486;28;20796;-60
2022/10/14 08:28:24;;;;;;;7.55;3.78;;;;;;;6.36;65.79;99904.34;5066846;28;20154;-58
2022/10/14 08:31:01;;;;;;;6.30;3.30;;;;;;;6.43;65.59;99900.94;5065722;28;20145;-59
2022/10/14 08:33:38;;;;;;;5.57;3.10;;;;;;;6.46;65.73;99893.44;5067310;28;20142;-59
2022/10/14 08:36:16;;;;;;;5.32;3.03;;;;;;;6.53;66.08;99896.94;5064352;28;20604;-61
2022/10/14 08:38:53;;;;;;;4.55;3.03;;;;;;;6.58;66.02;99902.38;5063628;28;20402;-61
2022/10/14 08:41:59;;;;;;;6.00;2.92;;;;;;;6.58;65.76;99891.84;5063303;28;20391;-58
2022/10/14 08:44:42;;;;;;;3.35;2.72;;;;;;;6.68;65.93;99894.13;5064877;27;20927;-58
2022/10/14 08:47:23;;;;;;;5.38;2.70;;;;;;;6.54;66.95;99885.38;5063097;28;20967;-59
2022/10/14 08:50:02;;;;;;;3.83;2.67;;;;;;;6.65;67.77;99891.91;5065245;28;20386;-60
2022/10/14 08:52:49;;;;;;;3.83;2.92;;;;;;;6.74;67.87;99887.25;5064267;28;20891;-57
2022/10/14 08:56:00;;;;;;;4.78;3.70;;;;;;;6.76;67.72;99891.28;5063987;28;20415;-59
2022/10/14 08:58:46;;;;;;;4.47;2.92;;;;;;;6.83;67.97;99886.03;5065399;28;20391;-58
2022/10/14 09:01:35;;;;;;;4.25;2.70;;;;;;;6.87;68.76;99887.25;5063909;28;20397;-59
2022/10/14 09:04:13;;;;;;;4.40;2.67;;;;;;;6.87;69.29;99874.09;5126105;27;20966;-60
2022/10/14 09:06:52;;;;;;;2.85;2.33;;;;;;;6.91;69.83;99877.97;5065968;28;20390;-57
2022/10/14 09:09:39;;;;;;;4.47;2.67;;;;;;;6.98;70.19;99886.66;5064897;28;20391;-58
2022/10/14 09:12:21;;;;;;;5.68;2.60;;;;;;;6.99;70.40;99882.19;5063150;27;20391;-58
2022/10/14 09:15:21;;;;;;;4.80;2.60;;;;;;;6.92;71.19;99879.56;5085283;28;20419;-60
2022/10/14 09:18:22;;;;;;;12.27;3.40;;;;;;;7.01;70.92;99874.91;5065197;28;20387;-60
2022/10/14 09:21:00;;;;;;;3.10;2.42;;;;;;;7.08;70.35;99878.34;5105454;27;20384;-59
2022/10/14 09:23:38;;;;;;;3.88;2.88;;;;;;;7.20;70.16;99875.91;5063926;28;20390;-60
2022/10/14 09:26:18;;;;;;;5.63;3.65;;;;;;;7.20;69.18;99868.81;5063417;28;20134;-58
2022/10/14 09:28:56;;;;;;;5.72;3.45;;;;;;;7.24;69.42;99871.88;5084763;27;20382;-58
2022/10/14 09:31:32;;;;;;;7.97;3.47;;;;;;;7.26;69.18;99880.38;5104022;27;20545;-59
2022/10/14 09:34:17;;;;;;;4.90;3.13;;;;;;;7.30;69.18;99873.69;5065859;28;20519;-59
2022/10/14 09:36:53;;;;;;;4.55;3.10;;;;;;;7.33;69.32;99864.56;5063905;28;20924;-58
2022/10/14 09:39:32;;;;;;;6.90;3.20;;;;;;;7.46;69.13;99869.81;5064272;28;20141;-59
2022/10/14 09:42:19;;;;;;;6.07;3.60;;;;;;;7.55;69.16;99876.50;5064883;28;20402;-60
2022/10/14 09:45:14;;;;;;;4.82;3.47;;;;;;;7.64;68.62;99871.81;5069660;28;20949;-59
2022/10/14 09:47:57;;;;;;;4.43;3.03;;;;;;;7.72;68.74;99875.06;5063600;28;20414;-60
2022/10/14 09:50:39;;;;;;;5.15;3.20;;;;;;;7.83;68.25;99873.63;5062962;28;20406;-61
2022/10/14 09:53:25;;;;;;;5.00;3.30;;;;;;;7.84;68.04;99872.59;5063352;27;20393;-61
2022/10/14 09:56:03;;;;;;;5.45;3.97;;;;;;;7.84;68.08;99872.59;5115121;27;20390;-59
2022/10/14 09:58:46;;;;;;;6.05;3.90;;;;;;;7.92;67.59;99869.72;5063913;28;20764;-57
2022/10/14 10:01:40;;;;;;;5.72;3.88;;;;;;;7.97;67.72;99862.00;5063412;28;20383;-60
2022/10/14 10:04:33;;;;;;;13.85;4.40;;;;;;;8.08;67.58;99860.50;5066471;27;20378;-60
2022/10/14 10:07:30;;;;;;;7.53;3.90;;;;;;;8.17;66.63;99876.94;5084533;27;20470;-59
2022/10/14 10:10:19;;;;;;;7.00;3.50;;;;;;;8.21;66.76;99875.50;5066437;28;20391;-60
2022/10/14 10:12:56;;;;;;;5.18;4.10;;;;;;;8.19;67.49;99866.97;5066380;27;20386;-61
2022/10/14 10:15:34;;;;;;;6.97;4.47;;;;;;;8.25;67.29;99876.72;5066883;27;20378;-60
2022/10/14 10:18:17;;;;;;;8.43;5.60;;;;;;;8.23;67.27;99881.38;4987675;28;20133;-59
2022/10/14 10:21:16;;;;;;;8.98;5.13;;;;;;;8.40;67.05;99887.03;5068144;27;20763;-57
2022/10/14 10:24:17;;;;;;;6.47;4.32;;;;;;;8.54;67.04;99893.06;5168753;27;20335;-59
2022/10/14 10:26:53;;;;;;;7.25;4.68;;;;;;;8.55;66.61;99884.09;5068333;28;20394;-60
2022/10/14 10:29:31;;;;;;;11.90;5.45;;;;;;;8.51;65.85;99886.38;5067223;28;20653;-59
2022/10/14 10:32:11;;;;;;;8.80;6.03;;;;;;;8.42;67.14;99885.00;5065995;28;20394;-60
2022/10/14 10:35:06;;;;;;;8.00;5.50;;;;;;;8.36;66.92;99889.25;5064858;27;20387;-61
2022/10/14 10:37:49;;;;;;;9.65;5.40;;;;;;;8.43;66.94;99880.53;5065579;28;20391;-59
2022/10/14 10:40:40;;;;;;;8.60;4.85;;;;;;;8.47;66.76;99881.72;5066613;27;20387;-61
2022/10/14 10:43:35;;;;;;;11.45;5.80;;;;;;;8.45;66.03;99873.19;5086196;27;20411;-59
2022/10/14 10:46:32;;;;;;;7.25;5.18;;;;;;;8.39;66.22;99869.56;5066979;28;20395;-59
2022/10/14 10:49:50;;;;;;;9.60;5.97;;;;;;;8.39;66.86;99872.22;5149582;27;20446;-60
2022/10/14 10:52:42;;;;;;;8.48;5.90;;;;;;;8.29;66.71;99877.91;5065749;28;20935;-60
2022/10/14 10:55:31;;;;;;;8.63;5.40;;;;;;;8.29;66.59;99883.19;5067984;28;20415;-59
2022/10/14 10:58:26;;;;;;;8.27;5.30;;;;;;;8.20;66.27;99874.69;5067951;27;20161;-58
2022/10/14 11:01:42;;;;;;;9.25;5.75;;;;;;;8.21;66.37;99880.78;5047637;28;20417;-60
2022/10/14 11:04:54;;;;;;;10.07;6.30;;;;;;;8.19;66.70;99872.25;5087619;27;20859;-60
2022/10/14 11:14:04;;;;;;;10.25;5.80;;;;;;;8.00;66.93;99866.06;5066136;27;20406;-61
2022/10/14 11:17:02;;;;;;;10.10;6.43;;;;;;;8.03;66.92;99873.56;4974754;27;3783522;-61
2022/10/14 11:19:53;;;;;;;8.65;5.97;;;;;;;7.97;67.08;99877.00;5063695;28;20497;-60
2022/10/14 11:22:42;;;;;;;10.18;6.88;;;;;;;7.92;67.04;99874.19;5063342;28;20394;-59
2022/10/14 11:25:49;;;;;;;11.25;6.93;;;;;;;7.87;67.77;99869.53;5065447;27;20391;-58
2022/10/14 11:28:58;;;;;;;13.40;7.13;;;;;;;7.82;67.69;99874.59;5064390;28;20383;-59
2022/10/14 11:31:44;;;;;;;10.95;6.95;;;;;;;7.72;67.95;99866.31;5001887;28;20394;-58
2022/10/14 11:34:41;;;;;;;10.73;6.60;;;;;;;7.62;68.51;99858.84;5064689;28;20390;-57
2022/10/14 11:37:43;;;;;;;15.20;7.20;;;;;;;7.65;68.64;99866.34;5124589;27;20338;-59
2022/10/14 11:40:25;;;;;;;18.17;11.15;;;;;;;7.68;68.34;99867.78;5106608;27;20953;-59
2022/10/14 11:43:31;;;;;;;14.13;7.30;;;;;;;7.71;68.18;99862.06;5065017;28;20938;-58
2022/10/14 11:46:13;;;;;;;9.93;5.95;;;;;;;7.76;67.50;99867.53;5125324;27;20517;-59
2022/10/14 11:49:04;;;;;;;10.45;5.85;;;;;;;7.69;67.68;99866.75;5066713;28;20398;-59
2022/10/14 11:51:52;;;;;;;8.93;5.68;;;;;;;7.68;67.91;99857.22;5066038;28;20949;-58
2022/10/14 11:54:43;;;;;;;15.38;8.18;;;;;;;7.67;67.60;99860.84;5066553;28;20410;-59
2022/10/14 11:57:45;;;;;;;8.40;6.00;;;;;;;7.66;67.83;99869.78;5065437;28;20397;-59
2022/10/14 12:00:39;;;;;;;11.20;5.13;;;;;;;7.74;67.80;99864.31;5095894;27;1326160;-59
2022/10/14 12:03:34;;;;;;;8.30;5.70;;;;;;;7.85;67.31;99861.03;5105276;27;20392;-58
2022/10/14 12:06:18;;;;;;;8.07;5.35;;;;;;;7.89;67.33;99856.13;5066972;27;20389;-58
2022/10/14 12:09:12;;;;;;;9.27;5.20;;;;;;;7.88;67.01;99852.69;5067071;28;20383;-57
2022/10/14 12:11:57;;;;;;;6.18;4.78;;;;;;;7.96;66.78;99863.00;5108026;27;20693;-59
2022/10/14 12:14:45;;;;;;;7.45;5.30;;;;;;;8.00;66.44;99855.50;5066890;28;20441;-59
2022/10/14 12:17:33;;;;;;;6.93;4.82;;;;;;;8.03;66.44;99856.88;5067561;28;20383;-59
2022/10/14 12:20:16;;;;;;;12.00;6.00;;;;;;;8.00;66.29;99868.69;5108114;27;20793;-60
2022/10/14 12:22:55;;;;;;;8.23;5.22;;;;;;;8.09;65.89;99848.97;5066931;27;20895;-58
2022/10/14 12:25:39;;;;;;;7.70;5.32;;;;;;;8.10;66.82;99855.84;5067507;27;20393;-60
2022/10/14 12:28:18;;;;;;;6.63;5.38;;;;;;;8.18;66.30;99857.44;5067493;28;20391;-58
2022/10/14 12:31:21;;;;;;;9.05;5.40;;;;;;;8.15;66.43;99857.88;5067257;27;20398;-58
2022/10/14 12:34:10;;;;;;;8.60;5.38;;;;;;;8.18;66.82;99849.53;5128429;27;20393;-58
2022/10/14 12:36:49;;;;;;;8.57;5.05;;;;;;;8.20;66.83;99842.19;4970682;28;20382;-59
2022/10/14 12:39:33;;;;;;;7.93;4.88;;;;;;;8.14;67.23;99854.41;5067359;28;20386;-59
2022/10/14 12:42:12;;;;;;;8.60;5.82;;;;;;;8.12;66.90;99840.63;5087101;27;20385;-59
2022/10/14 12:44:55;;;;;;;7.78;5.15;;;;;;;8.13;66.89;99847.50;5067012;28;20399;-58
2022/10/14 12:47:35;;;;;;;6.97;5.10;;;;;;;8.10;66.67;99842.66;5106713;27;20392;-59
2022/10/14 12:50:13;;;;;;;9.73;5.10;;;;;;;8.15;66.75;99840.19;5066718;27;20391;-59
2022/10/14 12:52:59;;;;;;;10.95;5.90;;;;;;;8.17;66.43;99843.41;5105362;27;1297846;-59
2022/10/14 12:55:52;;;;;;;8.65;5.72;;;;;;;8.23;65.92;99844.41;5066779;28;20378;-59